sensor_id;sensor_type;location;lat;lon;timestamp;temperature;humidity
19567;DHT22;9930;49.240;8.548;2022-10-04T00:02:28;11.80;77.90
19567;DHT22;9930;49.240;8.548;2022-10-04T00:05:03;11.80;78.40
19567;DHT22;9930;49.240;8.548;2022-10-04T00:07:43;11.80;78.00
19567;DHT22;9930;49.240;8.548;2022-10-04T00:10:27;11.80;78.30
19567;DHT22;9930;49.240;8.548;2022-10-04T00:12:58;11.70;78.30
19567;DHT22;9930;49.240;8.548;2022-10-04T00:15:35;11.70;78.70
19567;DHT22;9930;49.240;8.548;2022-10-04T00:18:26;11.70;78.50
19567;DHT22;9930;49.240;8.548;2022-10-04T00:21:00;11.70;78.80
19567;DHT22;9930;49.240;8.548;2022-10-04T00:44:32;11.60;79.40
19567;DHT22;9930;49.240;8.548;2022-10-04T00:50:06;11.60;79.20
19567;DHT22;9930;49.240;8.548;2022-10-04T00:52:47;11.60;79.10
19567;DHT22;9930;49.240;8.548;2022-10-04T00:55:33;11.60;79.00
19567;DHT22;9930;49.240;8.548;2022-10-04T00:58:07;11.50;79.60
19567;DHT22;9930;49.240;8.548;2022-10-04T01:00:53;11.50;79.20
19567;DHT22;9930;49.240;8.548;2022-10-04T01:03:34;11.50;79.50
19567;DHT22;9930;49.240;8.548;2022-10-04T01:06:05;11.50;80.00
19567;DHT22;9930;49.240;8.548;2022-10-04T01:08:46;11.50;79.60
19567;DHT22;9930;49.240;8.548;2022-10-04T01:11:33;11.50;79.70
19567;DHT22;9930;49.240;8.548;2022-10-04T01:14:27;11.50;79.90
19567;DHT22;9930;49.240;8.548;2022-10-04T01:17:07;11.50;80.30
19567;DHT22;9930;49.240;8.548;2022-10-04T01:19:33;11.50;79.70
19567;DHT22;9930;49.240;8.548;2022-10-04T01:22:14;11.50;79.70
19567;DHT22;9930;49.240;8.548;2022-10-04T01:25:08;11.50;80.20
19567;DHT22;9930;49.240;8.548;2022-10-04T01:30:12;11.50;80.00
19567;DHT22;9930;49.240;8.548;2022-10-04T01:32:44;11.50;80.00
19567;DHT22;9930;49.240;8.548;2022-10-04T01:35:12;11.50;80.10
19567;DHT22;9930;49.240;8.548;2022-10-04T01:37:45;11.50;80.10
19567;DHT22;9930;49.240;8.548;2022-10-04T01:40:22;11.50;80.10
19567;DHT22;9930;49.240;8.548;2022-10-04T01:43:04;11.50;80.20
19567;DHT22;9930;49.240;8.548;2022-10-04T01:45:57;11.50;80.50
19567;DHT22;9930;49.240;8.548;2022-10-04T01:48:35;11.50;80.80
19567;DHT22;9930;49.240;8.548;2022-10-04T01:51:11;11.50;80.40
19567;DHT22;9930;49.240;8.548;2022-10-04T01:54:00;11.50;80.50
19567;DHT22;9930;49.240;8.548;2022-10-04T01:56:33;11.50;80.70
19567;DHT22;9930;49.240;8.548;2022-10-04T01:59:16;11.40;80.20
19567;DHT22;9930;49.240;8.548;2022-10-04T02:02:17;11.40;80.50
19567;DHT22;9930;49.240;8.548;2022-10-04T02:04:54;11.40;81.00
19567;DHT22;9930;49.240;8.548;2022-10-04T02:07:23;11.40;80.50
19567;DHT22;9930;49.240;8.548;2022-10-04T02:09:59;11.40;80.60
19567;DHT22;9930;49.240;8.548;2022-10-04T02:12:30;11.40;80.60
19567;DHT22;9930;49.240;8.548;2022-10-04T02:15:00;11.40;80.70
19567;DHT22;9930;49.240;8.548;2022-10-04T02:17:33;11.40;80.80
19567;DHT22;9930;49.240;8.548;2022-10-04T02:20:13;11.40;80.80
19567;DHT22;9930;49.240;8.548;2022-10-04T02:25:44;11.40;81.30
19567;DHT22;9930;49.240;8.548;2022-10-04T02:28:11;11.40;80.90
19567;DHT22;9930;49.240;8.548;2022-10-04T02:30:43;11.40;80.90
19567;DHT22;9930;49.240;8.548;2022-10-04T02:33:31;11.40;80.90
19567;DHT22;9930;49.240;8.548;2022-10-04T02:35:58;11.40;81.10
19567;DHT22;9930;49.240;8.548;2022-10-04T02:38:29;11.40;81.20
19567;DHT22;9930;49.240;8.548;2022-10-04T02:41:14;11.40;81.00
19567;DHT22;9930;49.240;8.548;2022-10-04T02:46:31;11.40;81.20
19567;DHT22;9930;49.240;8.548;2022-10-04T02:52:08;11.40;82.40
19567;DHT22;9930;49.240;8.548;2022-10-04T02:55:01;11.40;82.10
19567;DHT22;9930;49.240;8.548;2022-10-04T02:57:32;11.40;82.00
19567;DHT22;9930;49.240;8.548;2022-10-04T03:02:39;11.40;81.80
19567;DHT22;9930;49.240;8.548;2022-10-04T03:05:23;11.40;81.60
19567;DHT22;9930;49.240;8.548;2022-10-04T03:07:53;11.40;81.90
19567;DHT22;9930;49.240;8.548;2022-10-04T03:10:22;11.40;81.70
19567;DHT22;9930;49.240;8.548;2022-10-04T03:12:53;11.40;81.80
19567;DHT22;9930;49.240;8.548;2022-10-04T03:15:22;11.40;81.30
19567;DHT22;9930;49.240;8.548;2022-10-04T03:17:52;11.40;81.40
19567;DHT22;9930;49.240;8.548;2022-10-04T03:20:23;11.40;81.70
19567;DHT22;9930;49.240;8.548;2022-10-04T03:22:53;11.40;81.90
19567;DHT22;9930;49.240;8.548;2022-10-04T03:25:28;11.40;81.80
19567;DHT22;9930;49.240;8.548;2022-10-04T03:28:26;11.40;82.10
19567;DHT22;9930;49.240;8.548;2022-10-04T03:30:55;11.40;82.30
19567;DHT22;9930;49.240;8.548;2022-10-04T03:33:26;11.40;82.00
19567;DHT22;9930;49.240;8.548;2022-10-04T03:35:58;11.40;82.10
19567;DHT22;9930;49.240;8.548;2022-10-04T03:38:26;11.30;82.20
19567;DHT22;9930;49.240;8.548;2022-10-04T03:40:58;11.40;82.00
19567;DHT22;9930;49.240;8.548;2022-10-04T03:43:29;11.40;82.00
19567;DHT22;9930;49.240;8.548;2022-10-04T03:45:57;11.30;82.00
19567;DHT22;9930;49.240;8.548;2022-10-04T03:48:34;11.30;82.00
19567;DHT22;9930;49.240;8.548;2022-10-04T03:51:04;11.30;82.10
19567;DHT22;9930;49.240;8.548;2022-10-04T03:53:38;11.30;82.00
19567;DHT22;9930;49.240;8.548;2022-10-04T03:56:15;11.30;82.00
19567;DHT22;9930;49.240;8.548;2022-10-04T03:58:41;11.30;82.10
19567;DHT22;9930;49.240;8.548;2022-10-04T04:01:27;11.30;82.00
19567;DHT22;9930;49.240;8.548;2022-10-04T04:04:30;11.30;82.40
19567;DHT22;9930;49.240;8.548;2022-10-04T04:07:18;11.20;82.80
19567;DHT22;9930;49.240;8.548;2022-10-04T04:12:40;11.20;82.50
19567;DHT22;9930;49.240;8.548;2022-10-04T04:15:13;11.20;82.50
19567;DHT22;9930;49.240;8.548;2022-10-04T04:17:51;11.20;82.30
19567;DHT22;9930;49.240;8.548;2022-10-04T04:20:31;11.20;82.50
19567;DHT22;9930;49.240;8.548;2022-10-04T04:23:10;11.20;82.50
19567;DHT22;9930;49.240;8.548;2022-10-04T04:25:44;11.20;82.40
19567;DHT22;9930;49.240;8.548;2022-10-04T04:28:26;11.20;82.50
19567;DHT22;9930;49.240;8.548;2022-10-04T04:31:03;11.10;82.70
19567;DHT22;9930;49.240;8.548;2022-10-04T04:33:43;11.10;82.90
19567;DHT22;9930;49.240;8.548;2022-10-04T04:36:14;11.20;82.90
19567;DHT22;9930;49.240;8.548;2022-10-04T04:38:44;11.20;83.10
19567;DHT22;9930;49.240;8.548;2022-10-04T04:41:32;11.20;83.00
19567;DHT22;9930;49.240;8.548;2022-10-04T04:44:02;11.20;83.20
19567;DHT22;9930;49.240;8.548;2022-10-04T04:46:32;11.30;83.10
19567;DHT22;9930;49.240;8.548;2022-10-04T04:49:08;11.30;83.10
19567;DHT22;9930;49.240;8.548;2022-10-04T04:51:36;11.30;83.40
19567;DHT22;9930;49.240;8.548;2022-10-04T04:54:10;11.30;83.00
19567;DHT22;9930;49.240;8.548;2022-10-04T04:56:40;11.30;83.00
19567;DHT22;9930;49.240;8.548;2022-10-04T04:59:10;11.30;83.00
19567;DHT22;9930;49.240;8.548;2022-10-04T05:01:45;11.30;83.00
19567;DHT22;9930;49.240;8.548;2022-10-04T05:06:45;11.30;82.60
19567;DHT22;9930;49.240;8.548;2022-10-04T05:09:25;11.30;82.70
19567;DHT22;9930;49.240;8.548;2022-10-04T05:12:05;11.30;83.10
19567;DHT22;9930;49.240;8.548;2022-10-04T05:14:37;11.30;83.00
19567;DHT22;9930;49.240;8.548;2022-10-04T05:17:19;11.30;82.90
19567;DHT22;9930;49.240;8.548;2022-10-04T05:19:49;11.30;83.00
19567;DHT22;9930;49.240;8.548;2022-10-04T05:22:25;11.20;82.80
19567;DHT22;9930;49.240;8.548;2022-10-04T05:24:58;11.30;83.10
19567;DHT22;9930;49.240;8.548;2022-10-04T05:27:52;11.20;83.00
19567;DHT22;9930;49.240;8.548;2022-10-04T05:42:35;11.20;83.30
19567;DHT22;9930;49.240;8.548;2022-10-04T05:44:53;11.20;83.50
19567;DHT22;9930;49.240;8.548;2022-10-04T05:47:26;11.30;83.40
19567;DHT22;9930;49.240;8.548;2022-10-04T05:49:56;11.30;83.50
19567;DHT22;9930;49.240;8.548;2022-10-04T05:52:32;11.30;83.50
19567;DHT22;9930;49.240;8.548;2022-10-04T05:55:31;11.30;83.60
19567;DHT22;9930;49.240;8.548;2022-10-04T05:58:43;11.30;83.80
19567;DHT22;9930;49.240;8.548;2022-10-04T06:06:49;11.30;84.30
19567;DHT22;9930;49.240;8.548;2022-10-04T06:12:54;11.50;84.00
19567;DHT22;9930;49.240;8.548;2022-10-04T06:24:33;11.50;84.30
19567;DHT22;9930;49.240;8.548;2022-10-04T06:30:29;11.60;84.00
19567;DHT22;9930;49.240;8.548;2022-10-04T06:42:29;11.70;83.70
19567;DHT22;9930;49.240;8.548;2022-10-04T06:58:17;11.80;84.30
19567;DHT22;9930;49.240;8.548;2022-10-04T07:10:23;12.00;84.50
19567;DHT22;9930;49.240;8.548;2022-10-04T07:16:04;12.20;84.80
19567;DHT22;9930;49.240;8.548;2022-10-04T07:21:32;12.30;84.70
19567;DHT22;9930;49.240;8.548;2022-10-04T07:24:06;12.30;84.70
19567;DHT22;9930;49.240;8.548;2022-10-04T07:26:51;12.50;84.80
19567;DHT22;9930;49.240;8.548;2022-10-04T07:29:34;12.50;85.00
19567;DHT22;9930;49.240;8.548;2022-10-04T07:34:44;12.60;84.90
19567;DHT22;9930;49.240;8.548;2022-10-04T07:37:21;12.70;85.10
19567;DHT22;9930;49.240;8.548;2022-10-04T07:40:06;12.70;85.00
19567;DHT22;9930;49.240;8.548;2022-10-04T07:42:52;12.80;84.70
19567;DHT22;9930;49.240;8.548;2022-10-04T07:48:25;13.00;84.40
19567;DHT22;9930;49.240;8.548;2022-10-04T07:51:17;13.00;84.10
19567;DHT22;9930;49.240;8.548;2022-10-04T07:54:18;13.10;84.50
19567;DHT22;9930;49.240;8.548;2022-10-04T07:57:12;13.10;84.60
19567;DHT22;9930;49.240;8.548;2022-10-04T08:03:20;13.30;84.60
19567;DHT22;9930;49.240;8.548;2022-10-04T08:09:24;13.50;84.40
19567;DHT22;9930;49.240;8.548;2022-10-04T08:12:10;13.50;84.40
19567;DHT22;9930;49.240;8.548;2022-10-04T08:20:54;13.80;84.00
19567;DHT22;9930;49.240;8.548;2022-10-04T08:23:43;13.80;83.60
19567;DHT22;9930;49.240;8.548;2022-10-04T08:26:44;13.90;83.80
19567;DHT22;9930;49.240;8.548;2022-10-04T08:35:22;14.20;84.40
19567;DHT22;9930;49.240;8.548;2022-10-04T08:50:35;14.80;83.40
19567;DHT22;9930;49.240;8.548;2022-10-04T09:12:12;15.60;82.20
19567;DHT22;9930;49.240;8.548;2022-10-04T09:52:00;16.90;79.90
19567;DHT22;9930;49.240;8.548;2022-10-04T09:55:04;17.00;80.40
19567;DHT22;9930;49.240;8.548;2022-10-04T10:00:51;17.10;79.00
19567;DHT22;9930;49.240;8.548;2022-10-04T10:06:38;17.40;79.70
19567;DHT22;9930;49.240;8.548;2022-10-04T10:09:28;17.50;80.20
19567;DHT22;9930;49.240;8.548;2022-10-04T10:22:46;17.80;77.70
19567;DHT22;9930;49.240;8.548;2022-10-04T10:28:45;18.00;78.10
19567;DHT22;9930;49.240;8.548;2022-10-04T10:31:57;18.10;77.70
19567;DHT22;9930;49.240;8.548;2022-10-04T10:46:16;18.40;77.00
19567;DHT22;9930;49.240;8.548;2022-10-04T10:52:59;18.50;76.30
19567;DHT22;9930;49.240;8.548;2022-10-04T10:56:03;18.50;75.00
19567;DHT22;9930;49.240;8.548;2022-10-04T11:11:39;19.00;74.20
19567;DHT22;9930;49.240;8.548;2022-10-04T11:17:22;19.20;73.80
19567;DHT22;9930;49.240;8.548;2022-10-04T11:26:36;19.50;74.80
19567;DHT22;9930;49.240;8.548;2022-10-04T11:38:56;19.60;72.70
19567;DHT22;9930;49.240;8.548;2022-10-04T11:41:58;19.70;73.10
19567;DHT22;9930;49.240;8.548;2022-10-04T11:59:09;19.90;71.80
19567;DHT22;9930;49.240;8.548;2022-10-04T12:49:47;20.00;70.00
19567;DHT22;9930;49.240;8.548;2022-10-04T12:52:29;20.00;70.40
19567;DHT22;9930;49.240;8.548;2022-10-04T13:07:22;20.00;69.70
19567;DHT22;9930;49.240;8.548;2022-10-04T13:16:33;20.00;69.90
19567;DHT22;9930;49.240;8.548;2022-10-04T13:19:48;20.00;69.60
19567;DHT22;9930;49.240;8.548;2022-10-04T13:31:40;20.00;69.40
19567;DHT22;9930;49.240;8.548;2022-10-04T13:40:02;20.00;69.30
19567;DHT22;9930;49.240;8.548;2022-10-04T13:43:04;20.00;69.10
19567;DHT22;9930;49.240;8.548;2022-10-04T13:46:21;20.10;69.50
19567;DHT22;9930;49.240;8.548;2022-10-04T13:55:58;20.00;69.10
19567;DHT22;9930;49.240;8.548;2022-10-04T14:01:47;20.00;69.50
19567;DHT22;9930;49.240;8.548;2022-10-04T14:30:12;20.00;69.10
19567;DHT22;9930;49.240;8.548;2022-10-04T14:35:33;20.00;69.30
19567;DHT22;9930;49.240;8.548;2022-10-04T14:41:51;19.90;68.70
19567;DHT22;9930;49.240;8.548;2022-10-04T14:48:00;19.90;68.90
19567;DHT22;9930;49.240;8.548;2022-10-04T14:54:08;19.90;68.90
19567;DHT22;9930;49.240;8.548;2022-10-04T15:11:06;19.80;68.20
19567;DHT22;9930;49.240;8.548;2022-10-04T15:13:59;19.90;68.50
19567;DHT22;9930;49.240;8.548;2022-10-04T15:16:54;19.80;68.30
19567;DHT22;9930;49.240;8.548;2022-10-04T15:19:36;19.90;68.30
19567;DHT22;9930;49.240;8.548;2022-10-04T15:22:30;19.90;68.20
19567;DHT22;9930;49.240;8.548;2022-10-04T15:25:42;19.80;68.40
19567;DHT22;9930;49.240;8.548;2022-10-04T15:34:41;19.80;68.60
19567;DHT22;9930;49.240;8.548;2022-10-04T15:43:41;19.70;68.20
19567;DHT22;9930;49.240;8.548;2022-10-04T15:46:32;19.70;68.70
19567;DHT22;9930;49.240;8.548;2022-10-04T16:04:15;19.50;68.50
19567;DHT22;9930;49.240;8.548;2022-10-04T16:09:56;19.50;68.70
19567;DHT22;9930;49.240;8.548;2022-10-04T16:15:31;19.40;68.80
19567;DHT22;9930;49.240;8.548;2022-10-04T16:21:31;19.40;69.00
19567;DHT22;9930;49.240;8.548;2022-10-04T16:24:44;19.30;69.20
19567;DHT22;9930;49.240;8.548;2022-10-04T16:30:39;19.20;69.10
19567;DHT22;9930;49.240;8.548;2022-10-04T16:33:36;19.20;69.20
19567;DHT22;9930;49.240;8.548;2022-10-04T16:36:17;19.10;69.20
19567;DHT22;9930;49.240;8.548;2022-10-04T16:38:54;19.00;69.20
19567;DHT22;9930;49.240;8.548;2022-10-04T16:41:58;19.00;69.30
19567;DHT22;9930;49.240;8.548;2022-10-04T16:47:16;18.90;69.40
19567;DHT22;9930;49.240;8.548;2022-10-04T16:49:54;18.90;69.60
19567;DHT22;9930;49.240;8.548;2022-10-04T16:52:41;18.80;69.60
19567;DHT22;9930;49.240;8.548;2022-10-04T16:55:42;18.80;69.50
19567;DHT22;9930;49.240;8.548;2022-10-04T17:21:02;18.10;70.80
19567;DHT22;9930;49.240;8.548;2022-10-04T17:32:09;17.80;71.90
19567;DHT22;9930;49.240;8.548;2022-10-04T17:37:36;17.70;71.80
19567;DHT22;9930;49.240;8.548;2022-10-04T17:42:59;17.50;72.00
19567;DHT22;9930;49.240;8.548;2022-10-04T17:48:29;17.40;72.70
19567;DHT22;9930;49.240;8.548;2022-10-04T17:51:32;17.30;72.50
19567;DHT22;9930;49.240;8.548;2022-10-04T17:57:59;17.20;72.70
19567;DHT22;9930;49.240;8.548;2022-10-04T18:00:56;17.10;72.70
19567;DHT22;9930;49.240;8.548;2022-10-04T18:03:48;17.10;73.30
19567;DHT22;9930;49.240;8.548;2022-10-04T18:06:47;17.00;73.50
19567;DHT22;9930;49.240;8.548;2022-10-04T18:09:53;17.00;73.40
19567;DHT22;9930;49.240;8.548;2022-10-04T18:17:44;16.80;73.60
19567;DHT22;9930;49.240;8.548;2022-10-04T18:20:30;16.70;73.50
19567;DHT22;9930;49.240;8.548;2022-10-04T18:23:32;16.70;74.60
19567;DHT22;9930;49.240;8.548;2022-10-04T18:26:13;16.60;74.50
19567;DHT22;9930;49.240;8.548;2022-10-04T18:28:52;16.60;74.00
19567;DHT22;9930;49.240;8.548;2022-10-04T18:34:17;16.50;74.20
19567;DHT22;9930;49.240;8.548;2022-10-04T18:37:04;16.50;74.30
19567;DHT22;9930;49.240;8.548;2022-10-04T18:39:45;16.40;74.30
19567;DHT22;9930;49.240;8.548;2022-10-04T18:42:28;16.40;74.40
19567;DHT22;9930;49.240;8.548;2022-10-04T18:45:01;16.30;74.50
19567;DHT22;9930;49.240;8.548;2022-10-04T18:47:46;16.30;74.50
19567;DHT22;9930;49.240;8.548;2022-10-04T18:50:37;16.30;74.60
19567;DHT22;9930;49.240;8.548;2022-10-04T18:53:38;16.20;75.30
19567;DHT22;9930;49.240;8.548;2022-10-04T18:56:09;16.10;75.20
19567;DHT22;9930;49.240;8.548;2022-10-04T19:05:11;16.00;75.10
19567;DHT22;9930;49.240;8.548;2022-10-04T19:17:28;15.80;75.70
19567;DHT22;9930;49.240;8.548;2022-10-04T19:20:59;15.80;75.60
19567;DHT22;9930;49.240;8.548;2022-10-04T19:26:38;15.60;75.40
19567;DHT22;9930;49.240;8.548;2022-10-04T19:32:09;15.50;76.30
19567;DHT22;9930;49.240;8.548;2022-10-04T19:37:30;15.50;76.40
19567;DHT22;9930;49.240;8.548;2022-10-04T19:40:30;15.40;76.00
19567;DHT22;9930;49.240;8.548;2022-10-04T19:43:26;15.40;76.30
19567;DHT22;9930;49.240;8.548;2022-10-04T19:48:55;15.30;76.20
19567;DHT22;9930;49.240;8.548;2022-10-04T19:51:41;15.30;76.40
19567;DHT22;9930;49.240;8.548;2022-10-04T19:54:37;15.20;76.70
19567;DHT22;9930;49.240;8.548;2022-10-04T20:00:34;15.20;76.70
19567;DHT22;9930;49.240;8.548;2022-10-04T20:03:11;15.20;76.30
19567;DHT22;9930;49.240;8.548;2022-10-04T20:05:45;15.10;76.50
19567;DHT22;9930;49.240;8.548;2022-10-04T20:08:56;15.10;76.50
19567;DHT22;9930;49.240;8.548;2022-10-04T20:11:49;15.00;76.80
19567;DHT22;9930;49.240;8.548;2022-10-04T20:14:41;15.00;76.60
19567;DHT22;9930;49.240;8.548;2022-10-04T20:17:28;14.90;76.60
19567;DHT22;9930;49.240;8.548;2022-10-04T20:19:56;14.90;77.10
19567;DHT22;9930;49.240;8.548;2022-10-04T20:22:29;14.80;76.50
19567;DHT22;9930;49.240;8.548;2022-10-04T20:25:58;14.80;76.80
19567;DHT22;9930;49.240;8.548;2022-10-04T20:30:56;14.70;76.80
19567;DHT22;9930;49.240;8.548;2022-10-04T20:38:56;14.60;77.30
19567;DHT22;9930;49.240;8.548;2022-10-04T20:44:38;14.50;77.10
19567;DHT22;9930;49.240;8.548;2022-10-04T20:53:22;14.40;77.40
19567;DHT22;9930;49.240;8.548;2022-10-04T20:58:59;14.40;77.90
19567;DHT22;9930;49.240;8.548;2022-10-04T21:01:33;14.40;77.50
19567;DHT22;9930;49.240;8.548;2022-10-04T21:04:23;14.40;77.60
19567;DHT22;9930;49.240;8.548;2022-10-04T21:07:04;14.30;78.00
19567;DHT22;9930;49.240;8.548;2022-10-04T21:09:32;14.30;77.70
19567;DHT22;9930;49.240;8.548;2022-10-04T21:12:00;14.30;77.60
19567;DHT22;9930;49.240;8.548;2022-10-04T21:16:59;14.20;77.60
19567;DHT22;9930;49.240;8.548;2022-10-04T21:22:08;14.20;77.80
19567;DHT22;9930;49.240;8.548;2022-10-04T21:24:41;14.20;78.10
19567;DHT22;9930;49.240;8.548;2022-10-04T21:30:05;14.10;77.90
19567;DHT22;9930;49.240;8.548;2022-10-04T21:32:38;14.10;77.90
19567;DHT22;9930;49.240;8.548;2022-10-04T21:35:08;14.10;77.90
19567;DHT22;9930;49.240;8.548;2022-10-04T21:37:34;14.00;77.90
19567;DHT22;9930;49.240;8.548;2022-10-04T21:40:04;14.00;77.90
19567;DHT22;9930;49.240;8.548;2022-10-04T21:42:30;14.00;78.10
19567;DHT22;9930;49.240;8.548;2022-10-04T21:44:56;14.00;78.20
19567;DHT22;9930;49.240;8.548;2022-10-04T21:47:24;14.00;78.20
19567;DHT22;9930;49.240;8.548;2022-10-04T21:49:52;14.00;78.20
19567;DHT22;9930;49.240;8.548;2022-10-04T21:52:24;13.90;78.30
19567;DHT22;9930;49.240;8.548;2022-10-04T21:54:55;13.90;78.30
19567;DHT22;9930;49.240;8.548;2022-10-04T21:57:22;13.90;78.40
19567;DHT22;9930;49.240;8.548;2022-10-04T21:59:49;13.90;78.40
19567;DHT22;9930;49.240;8.548;2022-10-04T22:02:22;13.90;78.60
19567;DHT22;9930;49.240;8.548;2022-10-04T22:04:51;13.90;78.60
19567;DHT22;9930;49.240;8.548;2022-10-04T22:07:19;13.90;78.70
19567;DHT22;9930;49.240;8.548;2022-10-04T22:09:51;13.90;78.60
19567;DHT22;9930;49.240;8.548;2022-10-04T22:12:19;13.80;78.60
19567;DHT22;9930;49.240;8.548;2022-10-04T22:14:48;13.80;78.60
19567;DHT22;9930;49.240;8.548;2022-10-04T22:17:22;13.80;78.70
19567;DHT22;9930;49.240;8.548;2022-10-04T22:19:50;13.80;78.80
19567;DHT22;9930;49.240;8.548;2022-10-04T22:22:20;13.80;78.70
19567;DHT22;9930;49.240;8.548;2022-10-04T22:24:48;13.70;78.80
19567;DHT22;9930;49.240;8.548;2022-10-04T22:27:21;13.80;78.90
19567;DHT22;9930;49.240;8.548;2022-10-04T22:29:50;13.70;79.00
19567;DHT22;9930;49.240;8.548;2022-10-04T22:32:26;13.70;79.00
19567;DHT22;9930;49.240;8.548;2022-10-04T22:35:00;13.70;79.40
19567;DHT22;9930;49.240;8.548;2022-10-04T22:37:34;13.70;79.30
19567;DHT22;9930;49.240;8.548;2022-10-04T22:40:00;13.70;79.20
19567;DHT22;9930;49.240;8.548;2022-10-04T22:42:28;13.70;79.40
19567;DHT22;9930;49.240;8.548;2022-10-04T22:44:59;13.60;79.40
19567;DHT22;9930;49.240;8.548;2022-10-04T22:47:26;13.60;79.50
19567;DHT22;9930;49.240;8.548;2022-10-04T22:49:55;13.60;79.60
19567;DHT22;9930;49.240;8.548;2022-10-04T22:52:23;13.60;79.70
19567;DHT22;9930;49.240;8.548;2022-10-04T22:54:52;13.60;79.70
19567;DHT22;9930;49.240;8.548;2022-10-04T22:57:23;13.60;79.80
19567;DHT22;9930;49.240;8.548;2022-10-04T22:59:50;13.60;79.80
19567;DHT22;9930;49.240;8.548;2022-10-04T23:02:21;13.60;79.80
19567;DHT22;9930;49.240;8.548;2022-10-04T23:05:16;13.60;79.90
19567;DHT22;9930;49.240;8.548;2022-10-04T23:07:45;13.50;80.50
19567;DHT22;9930;49.240;8.548;2022-10-04T23:10:15;13.50;79.80
19567;DHT22;9930;49.240;8.548;2022-10-04T23:12:48;13.60;79.90
19567;DHT22;9930;49.240;8.548;2022-10-04T23:15:19;13.50;79.90
19567;DHT22;9930;49.240;8.548;2022-10-04T23:17:52;13.50;80.00
19567;DHT22;9930;49.240;8.548;2022-10-04T23:20:20;13.50;80.10
19567;DHT22;9930;49.240;8.548;2022-10-04T23:22:49;13.50;80.00
19567;DHT22;9930;49.240;8.548;2022-10-04T23:25:26;13.50;80.00
19567;DHT22;9930;49.240;8.548;2022-10-04T23:27:59;13.50;80.30
19567;DHT22;9930;49.240;8.548;2022-10-04T23:30:37;13.50;80.20
19567;DHT22;9930;49.240;8.548;2022-10-04T23:33:16;13.50;80.10
19567;DHT22;9930;49.240;8.548;2022-10-04T23:35:45;13.50;80.30
19567;DHT22;9930;49.240;8.548;2022-10-04T23:38:14;13.50;80.10
19567;DHT22;9930;49.240;8.548;2022-10-04T23:40:45;13.50;80.10
19567;DHT22;9930;49.240;8.548;2022-10-04T23:43:20;13.40;80.10
19567;DHT22;9930;49.240;8.548;2022-10-04T23:45:55;13.40;80.30
19567;DHT22;9930;49.240;8.548;2022-10-04T23:48:25;13.40;80.40
19567;DHT22;9930;49.240;8.548;2022-10-04T23:50:56;13.40;80.20
19567;DHT22;9930;49.240;8.548;2022-10-04T23:53:29;13.40;80.40
19567;DHT22;9930;49.240;8.548;2022-10-04T23:56:24;13.30;80.30
19567;DHT22;9930;49.240;8.548;2022-10-04T23:58:56;13.30;80.70
